sensor_id;sensor_type;location;lat;lon;timestamp;temperature;humidity
33269;DHT22;19640;50.944;5.260;2022-08-19T00:01:48;17.00;99.90
33269;DHT22;19640;50.944;5.260;2022-08-19T00:04:16;17.10;99.90
33269;DHT22;19640;50.944;5.260;2022-08-19T00:06:44;17.20;99.90
33269;DHT22;19640;50.944;5.260;2022-08-19T00:09:12;17.40;99.90
33269;DHT22;19640;50.944;5.260;2022-08-19T00:11:38;17.20;99.90
33269;DHT22;19640;50.944;5.260;2022-08-19T00:14:06;17.20;99.90
33269;DHT22;19640;50.944;5.260;2022-08-19T00:16:32;17.20;99.90
33269;DHT22;19640;50.944;5.260;2022-08-19T00:18:58;17.20;99.90
33269;DHT22;19640;50.944;5.260;2022-08-19T00:21:25;17.00;99.90
33269;DHT22;19640;50.944;5.260;2022-08-19T00:23:52;17.10;99.90
33269;DHT22;19640;50.944;5.260;2022-08-19T00:26:18;17.20;99.90
33269;DHT22;19640;50.944;5.260;2022-08-19T00:28:44;17.40;99.90
33269;DHT22;19640;50.944;5.260;2022-08-19T00:31:10;17.60;99.90
33269;DHT22;19640;50.944;5.260;2022-08-19T00:33:35;17.60;99.90
33269;DHT22;19640;50.944;5.260;2022-08-19T00:36:04;17.80;99.90
33269;DHT22;19640;50.944;5.260;2022-08-19T00:38:32;18.10;99.90
33269;DHT22;19640;50.944;5.260;2022-08-19T00:40:57;18.10;99.90
33269;DHT22;19640;50.944;5.260;2022-08-19T00:43:25;18.10;99.90
33269;DHT22;19640;50.944;5.260;2022-08-19T00:45:52;18.00;99.90
33269;DHT22;19640;50.944;5.260;2022-08-19T00:48:19;18.10;99.90
33269;DHT22;19640;50.944;5.260;2022-08-19T00:50:46;18.10;99.90
33269;DHT22;19640;50.944;5.260;2022-08-19T00:53:15;18.00;99.90
33269;DHT22;19640;50.944;5.260;2022-08-19T00:55:45;17.90;99.90
33269;DHT22;19640;50.944;5.260;2022-08-19T00:58:15;18.00;99.90
33269;DHT22;19640;50.944;5.260;2022-08-19T01:00:41;18.20;99.90
33269;DHT22;19640;50.944;5.260;2022-08-19T01:03:14;18.30;99.90
33269;DHT22;19640;50.944;5.260;2022-08-19T01:05:42;18.30;99.90
33269;DHT22;19640;50.944;5.260;2022-08-19T01:08:08;18.40;99.90
33269;DHT22;19640;50.944;5.260;2022-08-19T01:10:39;18.50;99.90
33269;DHT22;19640;50.944;5.260;2022-08-19T01:13:05;18.60;99.90
33269;DHT22;19640;50.944;5.260;2022-08-19T01:15:40;18.60;99.90
33269;DHT22;19640;50.944;5.260;2022-08-19T01:18:10;18.70;99.90
33269;DHT22;19640;50.944;5.260;2022-08-19T01:20:37;18.60;99.90
33269;DHT22;19640;50.944;5.260;2022-08-19T01:23:03;18.50;99.90
33269;DHT22;19640;50.944;5.260;2022-08-19T01:25:50;18.50;99.90
33269;DHT22;19640;50.944;5.260;2022-08-19T01:28:23;18.40;99.90
33269;DHT22;19640;50.944;5.260;2022-08-19T01:30:50;18.40;99.90
33269;DHT22;19640;50.944;5.260;2022-08-19T01:33:16;18.20;99.90
33269;DHT22;19640;50.944;5.260;2022-08-19T01:35:42;18.10;99.90
33269;DHT22;19640;50.944;5.260;2022-08-19T01:38:18;18.10;99.90
33269;DHT22;19640;50.944;5.260;2022-08-19T01:40:45;18.00;99.90
33269;DHT22;19640;50.944;5.260;2022-08-19T01:43:10;18.00;99.90
33269;DHT22;19640;50.944;5.260;2022-08-19T01:45:36;18.00;99.90
33269;DHT22;19640;50.944;5.260;2022-08-19T01:48:06;17.80;99.90
33269;DHT22;19640;50.944;5.260;2022-08-19T01:50:33;17.80;99.90
33269;DHT22;19640;50.944;5.260;2022-08-19T01:53:01;17.70;99.90
33269;DHT22;19640;50.944;5.260;2022-08-19T01:55:27;17.50;99.90
33269;DHT22;19640;50.944;5.260;2022-08-19T01:57:56;17.60;99.90
33269;DHT22;19640;50.944;5.260;2022-08-19T02:00:24;17.40;99.90
33269;DHT22;19640;50.944;5.260;2022-08-19T02:02:51;17.30;99.90
33269;DHT22;19640;50.944;5.260;2022-08-19T02:05:16;17.30;99.90
33269;DHT22;19640;50.944;5.260;2022-08-19T02:07:44;17.10;99.90
33269;DHT22;19640;50.944;5.260;2022-08-19T02:10:14;16.90;99.90
33269;DHT22;19640;50.944;5.260;2022-08-19T02:12:41;17.00;99.90
33269;DHT22;19640;50.944;5.260;2022-08-19T02:15:07;17.10;99.90
33269;DHT22;19640;50.944;5.260;2022-08-19T02:17:33;17.20;99.90
33269;DHT22;19640;50.944;5.260;2022-08-19T02:19:59;17.30;99.90
33269;DHT22;19640;50.944;5.260;2022-08-19T02:22:26;17.30;99.90
33269;DHT22;19640;50.944;5.260;2022-08-19T02:24:52;17.30;99.90
33269;DHT22;19640;50.944;5.260;2022-08-19T02:27:18;17.40;99.90
33269;DHT22;19640;50.944;5.260;2022-08-19T02:29:46;17.30;99.90
33269;DHT22;19640;50.944;5.260;2022-08-19T02:32:11;17.30;99.90
33269;DHT22;19640;50.944;5.260;2022-08-19T02:34:37;17.20;99.90
33269;DHT22;19640;50.944;5.260;2022-08-19T02:37:03;17.20;99.90
33269;DHT22;19640;50.944;5.260;2022-08-19T02:39:28;17.30;99.90
33269;DHT22;19640;50.944;5.260;2022-08-19T02:41:54;17.30;99.90
33269;DHT22;19640;50.944;5.260;2022-08-19T02:44:19;17.30;99.90
33269;DHT22;19640;50.944;5.260;2022-08-19T02:46:48;17.30;99.90
33269;DHT22;19640;50.944;5.260;2022-08-19T02:49:15;17.10;99.90
33269;DHT22;19640;50.944;5.260;2022-08-19T02:51:43;17.20;99.90
33269;DHT22;19640;50.944;5.260;2022-08-19T02:54:10;17.30;99.90
33269;DHT22;19640;50.944;5.260;2022-08-19T02:56:38;17.30;99.90
33269;DHT22;19640;50.944;5.260;2022-08-19T02:59:05;17.40;99.90
33269;DHT22;19640;50.944;5.260;2022-08-19T03:01:35;17.40;99.90
33269;DHT22;19640;50.944;5.260;2022-08-19T03:04:03;17.40;99.90
33269;DHT22;19640;50.944;5.260;2022-08-19T03:06:30;17.40;99.90
33269;DHT22;19640;50.944;5.260;2022-08-19T03:08:56;17.50;99.90
33269;DHT22;19640;50.944;5.260;2022-08-19T03:11:27;17.50;99.90
33269;DHT22;19640;50.944;5.260;2022-08-19T03:13:53;17.60;99.90
33269;DHT22;19640;50.944;5.260;2022-08-19T03:16:22;17.40;99.90
33269;DHT22;19640;50.944;5.260;2022-08-19T03:18:49;17.30;99.90
33269;DHT22;19640;50.944;5.260;2022-08-19T03:21:16;17.00;99.90
33269;DHT22;19640;50.944;5.260;2022-08-19T03:23:42;16.60;99.90
33269;DHT22;19640;50.944;5.260;2022-08-19T03:26:08;16.30;99.90
33269;DHT22;19640;50.944;5.260;2022-08-19T03:28:33;16.20;99.90
33269;DHT22;19640;50.944;5.260;2022-08-19T03:31:06;16.30;99.90
33269;DHT22;19640;50.944;5.260;2022-08-19T03:33:33;16.20;99.90
33269;DHT22;19640;50.944;5.260;2022-08-19T03:36:18;16.10;99.90
33269;DHT22;19640;50.944;5.260;2022-08-19T03:38:49;16.00;99.90
33269;DHT22;19640;50.944;5.260;2022-08-19T03:41:19;15.90;99.90
33269;DHT22;19640;50.944;5.260;2022-08-19T03:43:46;15.70;99.90
33269;DHT22;19640;50.944;5.260;2022-08-19T03:46:15;15.60;99.90
33269;DHT22;19640;50.944;5.260;2022-08-19T03:48:43;15.40;99.90
33269;DHT22;19640;50.944;5.260;2022-08-19T03:51:20;15.10;99.90
33269;DHT22;19640;50.944;5.260;2022-08-19T03:53:47;15.10;99.90
33269;DHT22;19640;50.944;5.260;2022-08-19T03:56:13;15.20;99.90
33269;DHT22;19640;50.944;5.260;2022-08-19T03:58:39;15.40;99.90
33269;DHT22;19640;50.944;5.260;2022-08-19T04:01:16;15.60;99.90
33269;DHT22;19640;50.944;5.260;2022-08-19T04:03:43;15.70;99.90
33269;DHT22;19640;50.944;5.260;2022-08-19T04:06:15;15.90;99.90
33269;DHT22;19640;50.944;5.260;2022-08-19T04:08:42;16.00;99.90
33269;DHT22;19640;50.944;5.260;2022-08-19T04:11:10;15.90;99.90
33269;DHT22;19640;50.944;5.260;2022-08-19T04:13:36;15.80;99.90
33269;DHT22;19640;50.944;5.260;2022-08-19T04:16:02;15.70;99.90
33269;DHT22;19640;50.944;5.260;2022-08-19T04:18:28;15.90;99.90
33269;DHT22;19640;50.944;5.260;2022-08-19T04:20:55;16.00;99.90
33269;DHT22;19640;50.944;5.260;2022-08-19T04:23:22;16.20;99.90
33269;DHT22;19640;50.944;5.260;2022-08-19T04:25:48;16.30;99.90
33269;DHT22;19640;50.944;5.260;2022-08-19T04:28:14;16.30;99.90
33269;DHT22;19640;50.944;5.260;2022-08-19T04:30:42;16.30;99.90
33269;DHT22;19640;50.944;5.260;2022-08-19T04:33:09;16.30;99.90
33269;DHT22;19640;50.944;5.260;2022-08-19T04:35:38;16.10;99.90
33269;DHT22;19640;50.944;5.260;2022-08-19T04:38:04;16.10;99.90
33269;DHT22;19640;50.944;5.260;2022-08-19T04:40:30;16.40;99.90
33269;DHT22;19640;50.944;5.260;2022-08-19T04:43:15;16.60;99.90
33269;DHT22;19640;50.944;5.260;2022-08-19T04:45:43;16.70;99.90
33269;DHT22;19640;50.944;5.260;2022-08-19T04:48:09;16.60;99.90
33269;DHT22;19640;50.944;5.260;2022-08-19T04:50:35;16.80;99.90
33269;DHT22;19640;50.944;5.260;2022-08-19T04:53:01;16.70;99.90
33269;DHT22;19640;50.944;5.260;2022-08-19T04:55:26;16.70;99.90
33269;DHT22;19640;50.944;5.260;2022-08-19T04:57:53;16.70;99.90
33269;DHT22;19640;50.944;5.260;2022-08-19T05:00:18;16.70;99.90
33269;DHT22;19640;50.944;5.260;2022-08-19T05:02:44;16.70;99.90
33269;DHT22;19640;50.944;5.260;2022-08-19T05:05:10;16.80;99.90
33269;DHT22;19640;50.944;5.260;2022-08-19T05:07:36;16.70;99.90
33269;DHT22;19640;50.944;5.260;2022-08-19T05:10:04;16.70;99.90
33269;DHT22;19640;50.944;5.260;2022-08-19T05:12:30;16.70;99.90
33269;DHT22;19640;50.944;5.260;2022-08-19T05:14:57;16.80;99.90
33269;DHT22;19640;50.944;5.260;2022-08-19T05:17:24;16.90;99.90
33269;DHT22;19640;50.944;5.260;2022-08-19T05:19:50;16.70;99.90
33269;DHT22;19640;50.944;5.260;2022-08-19T05:22:34;16.70;99.90
33269;DHT22;19640;50.944;5.260;2022-08-19T05:25:10;16.30;99.90
33269;DHT22;19640;50.944;5.260;2022-08-19T05:27:37;16.40;99.90
33269;DHT22;19640;50.944;5.260;2022-08-19T05:30:04;15.90;99.90
33269;DHT22;19640;50.944;5.260;2022-08-19T05:32:30;15.70;99.90
33269;DHT22;19640;50.944;5.260;2022-08-19T05:34:55;15.40;99.90
33269;DHT22;19640;50.944;5.260;2022-08-19T05:37:21;15.60;99.90
33269;DHT22;19640;50.944;5.260;2022-08-19T05:39:47;15.80;99.90
33269;DHT22;19640;50.944;5.260;2022-08-19T05:42:15;15.90;99.90
33269;DHT22;19640;50.944;5.260;2022-08-19T05:44:43;16.10;99.90
33269;DHT22;19640;50.944;5.260;2022-08-19T05:47:14;16.40;99.90
33269;DHT22;19640;50.944;5.260;2022-08-19T05:49:41;16.70;99.90
33269;DHT22;19640;50.944;5.260;2022-08-19T05:52:12;17.00;99.90
33269;DHT22;19640;50.944;5.260;2022-08-19T05:54:40;17.20;99.90
33269;DHT22;19640;50.944;5.260;2022-08-19T05:57:07;17.40;99.90
33269;DHT22;19640;50.944;5.260;2022-08-19T05:59:32;17.60;99.90
33269;DHT22;19640;50.944;5.260;2022-08-19T06:02:00;17.70;99.90
33269;DHT22;19640;50.944;5.260;2022-08-19T06:04:26;17.70;99.90
33269;DHT22;19640;50.944;5.260;2022-08-19T06:06:53;17.50;99.90
33269;DHT22;19640;50.944;5.260;2022-08-19T06:09:20;17.70;99.90
33269;DHT22;19640;50.944;5.260;2022-08-19T06:11:50;17.80;99.90
33269;DHT22;19640;50.944;5.260;2022-08-19T06:14:20;18.00;99.90
33269;DHT22;19640;50.944;5.260;2022-08-19T06:16:46;18.00;99.90
33269;DHT22;19640;50.944;5.260;2022-08-19T06:19:15;18.10;99.90
33269;DHT22;19640;50.944;5.260;2022-08-19T06:21:43;18.00;99.90
33269;DHT22;19640;50.944;5.260;2022-08-19T06:24:11;18.00;99.90
33269;DHT22;19640;50.944;5.260;2022-08-19T06:26:41;18.10;99.90
33269;DHT22;19640;50.944;5.260;2022-08-19T06:29:08;18.40;99.90
33269;DHT22;19640;50.944;5.260;2022-08-19T06:31:35;18.60;99.90
33269;DHT22;19640;50.944;5.260;2022-08-19T06:34:03;18.70;99.90
33269;DHT22;19640;50.944;5.260;2022-08-19T06:36:36;18.70;99.90
33269;DHT22;19640;50.944;5.260;2022-08-19T06:39:05;18.60;99.90
33269;DHT22;19640;50.944;5.260;2022-08-19T06:41:32;18.40;99.90
33269;DHT22;19640;50.944;5.260;2022-08-19T06:43:59;18.30;99.90
33269;DHT22;19640;50.944;5.260;2022-08-19T06:46:25;18.30;99.90
33269;DHT22;19640;50.944;5.260;2022-08-19T06:48:52;18.70;99.90
33269;DHT22;19640;50.944;5.260;2022-08-19T06:51:19;18.80;99.90
33269;DHT22;19640;50.944;5.260;2022-08-19T06:53:50;18.90;99.90
33269;DHT22;19640;50.944;5.260;2022-08-19T06:56:19;19.10;99.90
33269;DHT22;19640;50.944;5.260;2022-08-19T06:58:46;19.50;99.90
33269;DHT22;19640;50.944;5.260;2022-08-19T07:01:13;19.40;99.90
33269;DHT22;19640;50.944;5.260;2022-08-19T07:03:39;19.40;99.90
33269;DHT22;19640;50.944;5.260;2022-08-19T07:06:13;19.60;99.90
33269;DHT22;19640;50.944;5.260;2022-08-19T07:08:40;19.40;99.90
33269;DHT22;19640;50.944;5.260;2022-08-19T07:11:11;19.40;99.90
33269;DHT22;19640;50.944;5.260;2022-08-19T07:13:39;19.70;99.90
33269;DHT22;19640;50.944;5.260;2022-08-19T07:16:11;19.80;99.90
33269;DHT22;19640;50.944;5.260;2022-08-19T07:18:37;20.10;99.90
33269;DHT22;19640;50.944;5.260;2022-08-19T07:21:09;20.00;99.90
33269;DHT22;19640;50.944;5.260;2022-08-19T07:23:35;20.20;99.90
33269;DHT22;19640;50.944;5.260;2022-08-19T07:26:25;20.20;99.90
33269;DHT22;19640;50.944;5.260;2022-08-19T07:28:52;20.40;99.90
33269;DHT22;19640;50.944;5.260;2022-08-19T07:31:20;21.00;99.90
33269;DHT22;19640;50.944;5.260;2022-08-19T07:33:48;21.00;99.90
33269;DHT22;19640;50.944;5.260;2022-08-19T07:36:17;21.30;99.90
33269;DHT22;19640;50.944;5.260;2022-08-19T07:38:45;21.70;99.90
33269;DHT22;19640;50.944;5.260;2022-08-19T07:41:16;22.40;99.90
33269;DHT22;19640;50.944;5.260;2022-08-19T07:43:42;22.80;99.90
33269;DHT22;19640;50.944;5.260;2022-08-19T07:46:10;22.30;99.90
33269;DHT22;19640;50.944;5.260;2022-08-19T07:48:37;22.70;99.90
33269;DHT22;19640;50.944;5.260;2022-08-19T07:51:06;23.20;99.90
33269;DHT22;19640;50.944;5.260;2022-08-19T07:53:34;23.20;99.90
33269;DHT22;19640;50.944;5.260;2022-08-19T07:56:00;23.20;99.90
33269;DHT22;19640;50.944;5.260;2022-08-19T07:58:30;22.10;99.90
33269;DHT22;19640;50.944;5.260;2022-08-19T08:00:56;21.80;99.90
33269;DHT22;19640;50.944;5.260;2022-08-19T08:03:22;21.70;99.90
33269;DHT22;19640;50.944;5.260;2022-08-19T08:06:08;21.20;99.90
33269;DHT22;19640;50.944;5.260;2022-08-19T08:08:53;21.20;99.90
33269;DHT22;19640;50.944;5.260;2022-08-19T08:12:01;20.90;99.90
33269;DHT22;19640;50.944;5.260;2022-08-19T08:14:34;20.80;99.90
33269;DHT22;19640;50.944;5.260;2022-08-19T08:17:02;21.10;99.90
33269;DHT22;19640;50.944;5.260;2022-08-19T08:19:28;21.10;99.90
33269;DHT22;19640;50.944;5.260;2022-08-19T08:21:56;20.70;99.90
33269;DHT22;19640;50.944;5.260;2022-08-19T08:24:23;20.80;99.90
33269;DHT22;19640;50.944;5.260;2022-08-19T08:26:48;20.80;99.90
33269;DHT22;19640;50.944;5.260;2022-08-19T08:29:14;20.40;99.90
33269;DHT22;19640;50.944;5.260;2022-08-19T08:31:42;20.60;99.90
33269;DHT22;19640;50.944;5.260;2022-08-19T08:34:09;20.70;99.90
33269;DHT22;19640;50.944;5.260;2022-08-19T08:36:41;20.90;99.90
33269;DHT22;19640;50.944;5.260;2022-08-19T08:39:10;21.30;99.90
33269;DHT22;19640;50.944;5.260;2022-08-19T08:44:43;21.60;99.90
33269;DHT22;19640;50.944;5.260;2022-08-19T08:47:12;22.10;99.90
33269;DHT22;19640;50.944;5.260;2022-08-19T08:52:20;22.50;99.90
33269;DHT22;19640;50.944;5.260;2022-08-19T08:54:48;22.80;99.90
33269;DHT22;19640;50.944;5.260;2022-08-19T08:59:48;22.50;99.90
33269;DHT22;19640;50.944;5.260;2022-08-19T09:02:20;22.10;99.90
33269;DHT22;19640;50.944;5.260;2022-08-19T09:04:45;21.70;99.90
33269;DHT22;19640;50.944;5.260;2022-08-19T09:15:29;22.60;99.90
33269;DHT22;19640;50.944;5.260;2022-08-19T09:18:00;22.80;99.90
33269;DHT22;19640;50.944;5.260;2022-08-19T09:20:27;23.10;99.90
33269;DHT22;19640;50.944;5.260;2022-08-19T09:22:53;23.20;99.90
33269;DHT22;19640;50.944;5.260;2022-08-19T09:25:21;23.20;99.90
33269;DHT22;19640;50.944;5.260;2022-08-19T09:27:49;23.00;99.90
33269;DHT22;19640;50.944;5.260;2022-08-19T09:30:18;23.30;99.90
33269;DHT22;19640;50.944;5.260;2022-08-19T09:32:44;23.20;99.90
33269;DHT22;19640;50.944;5.260;2022-08-19T09:35:11;23.00;99.90
33269;DHT22;19640;50.944;5.260;2022-08-19T09:37:38;23.30;99.90
33269;DHT22;19640;50.944;5.260;2022-08-19T09:40:04;23.40;99.90
33269;DHT22;19640;50.944;5.260;2022-08-19T09:42:30;23.50;99.90
33269;DHT22;19640;50.944;5.260;2022-08-19T09:44:55;23.60;99.90
33269;DHT22;19640;50.944;5.260;2022-08-19T09:47:21;23.70;99.90
33269;DHT22;19640;50.944;5.260;2022-08-19T09:49:47;23.60;99.90
33269;DHT22;19640;50.944;5.260;2022-08-19T09:52:14;23.50;99.90
33269;DHT22;19640;50.944;5.260;2022-08-19T09:54:41;23.70;99.90
33269;DHT22;19640;50.944;5.260;2022-08-19T09:57:06;24.10;99.90
33269;DHT22;19640;50.944;5.260;2022-08-19T09:59:33;24.00;99.90
33269;DHT22;19640;50.944;5.260;2022-08-19T10:01:59;24.10;99.90
33269;DHT22;19640;50.944;5.260;2022-08-19T10:04:25;24.10;99.90
33269;DHT22;19640;50.944;5.260;2022-08-19T10:07:11;24.40;99.90
33269;DHT22;19640;50.944;5.260;2022-08-19T10:09:37;24.40;99.90
33269;DHT22;19640;50.944;5.260;2022-08-19T10:12:04;24.70;99.90
33269;DHT22;19640;50.944;5.260;2022-08-19T10:14:31;24.80;99.90
33269;DHT22;19640;50.944;5.260;2022-08-19T10:16:57;24.70;99.90
33269;DHT22;19640;50.944;5.260;2022-08-19T10:19:23;24.70;99.90
33269;DHT22;19640;50.944;5.260;2022-08-19T10:21:48;24.70;99.90
33269;DHT22;19640;50.944;5.260;2022-08-19T10:24:14;24.60;99.90
33269;DHT22;19640;50.944;5.260;2022-08-19T10:26:40;24.70;99.90
33269;DHT22;19640;50.944;5.260;2022-08-19T10:29:12;24.80;99.90
33269;DHT22;19640;50.944;5.260;2022-08-19T10:31:41;24.80;99.90
33269;DHT22;19640;50.944;5.260;2022-08-19T10:34:07;24.80;99.90
33269;DHT22;19640;50.944;5.260;2022-08-19T10:36:36;25.00;99.90
33269;DHT22;19640;50.944;5.260;2022-08-19T10:39:07;24.90;99.90
33269;DHT22;19640;50.944;5.260;2022-08-19T10:41:35;24.80;99.90
33269;DHT22;19640;50.944;5.260;2022-08-19T10:44:05;25.00;99.90
33269;DHT22;19640;50.944;5.260;2022-08-19T10:46:33;25.10;99.90
33269;DHT22;19640;50.944;5.260;2022-08-19T10:49:04;25.00;99.90
33269;DHT22;19640;50.944;5.260;2022-08-19T10:51:31;24.90;99.90
33269;DHT22;19640;50.944;5.260;2022-08-19T10:54:16;24.70;99.90
33269;DHT22;19640;50.944;5.260;2022-08-19T10:56:42;24.60;99.90
33269;DHT22;19640;50.944;5.260;2022-08-19T11:01:45;24.10;99.90
33269;DHT22;19640;50.944;5.260;2022-08-19T11:04:11;24.00;99.90
33269;DHT22;19640;50.944;5.260;2022-08-19T11:06:39;24.30;99.90
33269;DHT22;19640;50.944;5.260;2022-08-19T11:09:07;24.30;99.90
33269;DHT22;19640;50.944;5.260;2022-08-19T11:11:34;24.10;99.90
33269;DHT22;19640;50.944;5.260;2022-08-19T11:14:10;24.20;99.90
33269;DHT22;19640;50.944;5.260;2022-08-19T11:16:37;24.70;99.90
33269;DHT22;19640;50.944;5.260;2022-08-19T11:19:07;24.90;99.90
33269;DHT22;19640;50.944;5.260;2022-08-19T11:21:41;25.10;99.90
33269;DHT22;19640;50.944;5.260;2022-08-19T11:24:13;25.00;99.90
33269;DHT22;19640;50.944;5.260;2022-08-19T11:26:42;24.80;99.90
33269;DHT22;19640;50.944;5.260;2022-08-19T11:29:09;24.50;99.90
33269;DHT22;19640;50.944;5.260;2022-08-19T11:31:41;24.70;99.90
33269;DHT22;19640;50.944;5.260;2022-08-19T11:34:09;24.70;99.90
33269;DHT22;19640;50.944;5.260;2022-08-19T11:36:37;24.90;99.90
33269;DHT22;19640;50.944;5.260;2022-08-19T11:39:05;25.10;99.90
33269;DHT22;19640;50.944;5.260;2022-08-19T11:41:31;25.20;99.90
33269;DHT22;19640;50.944;5.260;2022-08-19T11:43:57;25.20;99.90
33269;DHT22;19640;50.944;5.260;2022-08-19T11:46:24;25.10;99.90
33269;DHT22;19640;50.944;5.260;2022-08-19T11:48:51;25.30;99.90
33269;DHT22;19640;50.944;5.260;2022-08-19T11:51:19;24.90;99.90
33269;DHT22;19640;50.944;5.260;2022-08-19T11:53:46;25.50;99.90
33269;DHT22;19640;50.944;5.260;2022-08-19T11:56:12;25.80;99.90
33269;DHT22;19640;50.944;5.260;2022-08-19T11:58:38;25.60;99.90
33269;DHT22;19640;50.944;5.260;2022-08-19T12:01:06;25.20;99.90
33269;DHT22;19640;50.944;5.260;2022-08-19T12:03:33;25.00;99.90
33269;DHT22;19640;50.944;5.260;2022-08-19T12:06:06;25.10;99.90
33269;DHT22;19640;50.944;5.260;2022-08-19T12:08:32;24.90;99.90
33269;DHT22;19640;50.944;5.260;2022-08-19T12:10:58;25.20;99.90
33269;DHT22;19640;50.944;5.260;2022-08-19T12:13:27;25.40;99.90
33269;DHT22;19640;50.944;5.260;2022-08-19T12:15:53;25.60;99.90
33269;DHT22;19640;50.944;5.260;2022-08-19T12:18:19;25.80;99.90
33269;DHT22;19640;50.944;5.260;2022-08-19T12:20:45;25.90;99.90
33269;DHT22;19640;50.944;5.260;2022-08-19T12:23:12;25.80;99.90
33269;DHT22;19640;50.944;5.260;2022-08-19T12:25:44;25.50;99.90
33269;DHT22;19640;50.944;5.260;2022-08-19T12:28:17;25.50;99.90
33269;DHT22;19640;50.944;5.260;2022-08-19T12:30:43;25.50;99.90
33269;DHT22;19640;50.944;5.260;2022-08-19T12:33:09;25.40;99.90
33269;DHT22;19640;50.944;5.260;2022-08-19T12:35:35;25.20;99.90
33269;DHT22;19640;50.944;5.260;2022-08-19T12:38:01;25.30;99.90
33269;DHT22;19640;50.944;5.260;2022-08-19T12:40:28;25.60;99.90
33269;DHT22;19640;50.944;5.260;2022-08-19T12:42:54;25.30;99.90
33269;DHT22;19640;50.944;5.260;2022-08-19T12:45:20;25.30;99.90
33269;DHT22;19640;50.944;5.260;2022-08-19T12:47:46;25.30;99.90
33269;DHT22;19640;50.944;5.260;2022-08-19T12:50:13;25.30;99.90
33269;DHT22;19640;50.944;5.260;2022-08-19T12:52:38;25.10;99.90
33269;DHT22;19640;50.944;5.260;2022-08-19T12:55:07;25.30;99.90
33269;DHT22;19640;50.944;5.260;2022-08-19T12:57:33;25.30;99.90
33269;DHT22;19640;50.944;5.260;2022-08-19T13:00:16;25.30;99.90
33269;DHT22;19640;50.944;5.260;2022-08-19T13:02:44;25.50;99.90
33269;DHT22;19640;50.944;5.260;2022-08-19T13:05:13;25.50;99.90
33269;DHT22;19640;50.944;5.260;2022-08-19T13:07:41;25.30;99.90
33269;DHT22;19640;50.944;5.260;2022-08-19T13:10:13;25.50;99.90
33269;DHT22;19640;50.944;5.260;2022-08-19T13:12:40;25.50;99.90
33269;DHT22;19640;50.944;5.260;2022-08-19T13:15:07;25.10;99.90
33269;DHT22;19640;50.944;5.260;2022-08-19T13:17:34;24.60;99.90
33269;DHT22;19640;50.944;5.260;2022-08-19T13:20:01;24.20;99.90
33269;DHT22;19640;50.944;5.260;2022-08-19T13:22:27;24.50;99.90
33269;DHT22;19640;50.944;5.260;2022-08-19T13:24:53;24.70;99.90
33269;DHT22;19640;50.944;5.260;2022-08-19T13:27:18;24.60;99.90
33269;DHT22;19640;50.944;5.260;2022-08-19T13:29:44;24.70;99.90
33269;DHT22;19640;50.944;5.260;2022-08-19T13:32:29;24.90;99.90
33269;DHT22;19640;50.944;5.260;2022-08-19T13:35:13;25.10;99.90
33269;DHT22;19640;50.944;5.260;2022-08-19T13:37:40;24.90;99.90
33269;DHT22;19640;50.944;5.260;2022-08-19T13:40:13;24.70;99.90
33269;DHT22;19640;50.944;5.260;2022-08-19T13:42:42;24.50;99.90
33269;DHT22;19640;50.944;5.260;2022-08-19T13:45:08;24.30;99.90
33269;DHT22;19640;50.944;5.260;2022-08-19T13:47:34;24.30;99.90
33269;DHT22;19640;50.944;5.260;2022-08-19T13:50:04;24.60;99.90
33269;DHT22;19640;50.944;5.260;2022-08-19T13:52:30;24.80;99.90
33269;DHT22;19640;50.944;5.260;2022-08-19T13:54:55;24.90;99.90
33269;DHT22;19640;50.944;5.260;2022-08-19T13:57:22;24.90;99.90
33269;DHT22;19640;50.944;5.260;2022-08-19T13:59:48;25.10;99.90
33269;DHT22;19640;50.944;5.260;2022-08-19T14:02:13;25.30;99.90
33269;DHT22;19640;50.944;5.260;2022-08-19T14:04:40;25.40;99.90
33269;DHT22;19640;50.944;5.260;2022-08-19T14:07:05;25.30;99.90
33269;DHT22;19640;50.944;5.260;2022-08-19T14:09:31;25.70;99.90
33269;DHT22;19640;50.944;5.260;2022-08-19T14:11:57;26.00;99.90
33269;DHT22;19640;50.944;5.260;2022-08-19T14:14:23;25.90;99.90
33269;DHT22;19640;50.944;5.260;2022-08-19T14:16:49;25.50;99.90
33269;DHT22;19640;50.944;5.260;2022-08-19T14:19:14;25.60;99.90
33269;DHT22;19640;50.944;5.260;2022-08-19T14:21:40;25.70;99.90
33269;DHT22;19640;50.944;5.260;2022-08-19T14:24:07;25.40;99.90
33269;DHT22;19640;50.944;5.260;2022-08-19T14:26:33;25.40;99.90
33269;DHT22;19640;50.944;5.260;2022-08-19T14:28:59;25.50;99.90
33269;DHT22;19640;50.944;5.260;2022-08-19T14:31:27;25.90;99.90
33269;DHT22;19640;50.944;5.260;2022-08-19T14:33:52;25.90;99.90
33269;DHT22;19640;50.944;5.260;2022-08-19T14:36:19;25.80;99.90
33269;DHT22;19640;50.944;5.260;2022-08-19T14:38:46;25.60;99.90
33269;DHT22;19640;50.944;5.260;2022-08-19T14:41:18;25.60;99.90
33269;DHT22;19640;50.944;5.260;2022-08-19T14:43:46;25.50;99.90
33269;DHT22;19640;50.944;5.260;2022-08-19T14:46:17;25.70;99.90
33269;DHT22;19640;50.944;5.260;2022-08-19T14:48:46;25.80;99.90
33269;DHT22;19640;50.944;5.260;2022-08-19T14:51:12;25.60;99.90
33269;DHT22;19640;50.944;5.260;2022-08-19T14:53:38;26.10;99.90
33269;DHT22;19640;50.944;5.260;2022-08-19T14:56:14;26.20;99.90
33269;DHT22;19640;50.944;5.260;2022-08-19T14:58:42;25.70;99.90
33269;DHT22;19640;50.944;5.260;2022-08-19T15:01:09;25.60;99.90
33269;DHT22;19640;50.944;5.260;2022-08-19T15:03:36;25.30;99.90
33269;DHT22;19640;50.944;5.260;2022-08-19T15:06:03;25.40;99.90
33269;DHT22;19640;50.944;5.260;2022-08-19T15:08:31;25.70;99.90
33269;DHT22;19640;50.944;5.260;2022-08-19T15:10:59;25.80;99.90
33269;DHT22;19640;50.944;5.260;2022-08-19T15:13:26;25.90;99.90
33269;DHT22;19640;50.944;5.260;2022-08-19T15:15:53;26.00;99.90
33269;DHT22;19640;50.944;5.260;2022-08-19T15:18:19;26.10;99.90
33269;DHT22;19640;50.944;5.260;2022-08-19T15:20:46;26.00;99.90
33269;DHT22;19640;50.944;5.260;2022-08-19T15:23:14;25.80;99.90
33269;DHT22;19640;50.944;5.260;2022-08-19T15:25:40;25.80;99.90
33269;DHT22;19640;50.944;5.260;2022-08-19T15:28:07;25.40;99.90
33269;DHT22;19640;50.944;5.260;2022-08-19T15:30:37;25.40;99.90
33269;DHT22;19640;50.944;5.260;2022-08-19T15:33:03;25.20;99.90
33269;DHT22;19640;50.944;5.260;2022-08-19T15:35:30;25.20;99.90
33269;DHT22;19640;50.944;5.260;2022-08-19T15:37:55;25.30;99.90
33269;DHT22;19640;50.944;5.260;2022-08-19T15:40:22;25.50;99.90
33269;DHT22;19640;50.944;5.260;2022-08-19T15:42:48;25.60;99.90
33269;DHT22;19640;50.944;5.260;2022-08-19T15:45:15;25.50;99.90
33269;DHT22;19640;50.944;5.260;2022-08-19T15:47:41;25.50;99.90
33269;DHT22;19640;50.944;5.260;2022-08-19T15:50:11;25.40;99.90
33269;DHT22;19640;50.944;5.260;2022-08-19T15:52:48;25.50;99.90
33269;DHT22;19640;50.944;5.260;2022-08-19T15:55:14;25.60;99.90